sensor_id;sensor_type;location;lat;lon;timestamp;temperature;humidity
6581;DHT22;3324;50.796;7.228;2023-12-04T00:01:31;1.50;99.90
6581;DHT22;3324;50.796;7.228;2023-12-04T00:03:57;1.50;99.90
6581;DHT22;3324;50.796;7.228;2023-12-04T00:06:23;1.40;99.90
6581;DHT22;3324;50.796;7.228;2023-12-04T00:08:48;1.50;99.90
6581;DHT22;3324;50.796;7.228;2023-12-04T00:11:14;1.50;99.90
6581;DHT22;3324;50.796;7.228;2023-12-04T00:13:39;1.50;99.90
6581;DHT22;3324;50.796;7.228;2023-12-04T00:16:05;1.40;99.90
6581;DHT22;3324;50.796;7.228;2023-12-04T00:18:31;1.40;99.90
6581;DHT22;3324;50.796;7.228;2023-12-04T00:20:56;1.50;99.90
6581;DHT22;3324;50.796;7.228;2023-12-04T00:23:22;1.40;99.90
6581;DHT22;3324;50.796;7.228;2023-12-04T00:25:47;1.40;99.90
6581;DHT22;3324;50.796;7.228;2023-12-04T00:28:13;1.40;99.90
6581;DHT22;3324;50.796;7.228;2023-12-04T00:30:38;1.40;99.90
6581;DHT22;3324;50.796;7.228;2023-12-04T00:33:04;1.40;99.90
6581;DHT22;3324;50.796;7.228;2023-12-04T00:35:29;1.40;99.90
6581;DHT22;3324;50.796;7.228;2023-12-04T00:37:55;1.40;99.90
6581;DHT22;3324;50.796;7.228;2023-12-04T00:40:20;1.40;99.90
6581;DHT22;3324;50.796;7.228;2023-12-04T00:42:46;1.40;99.90
6581;DHT22;3324;50.796;7.228;2023-12-04T00:45:11;1.40;99.90
6581;DHT22;3324;50.796;7.228;2023-12-04T00:47:36;1.50;99.90
6581;DHT22;3324;50.796;7.228;2023-12-04T00:50:02;1.50;99.90
6581;DHT22;3324;50.796;7.228;2023-12-04T00:52:28;1.40;99.90
6581;DHT22;3324;50.796;7.228;2023-12-04T00:54:53;1.40;99.90
6581;DHT22;3324;50.796;7.228;2023-12-04T00:57:18;1.40;99.90
6581;DHT22;3324;50.796;7.228;2023-12-04T00:59:44;1.40;99.90
6581;DHT22;3324;50.796;7.228;2023-12-04T01:02:09;1.40;99.90
6581;DHT22;3324;50.796;7.228;2023-12-04T01:04:35;1.50;99.90
6581;DHT22;3324;50.796;7.228;2023-12-04T01:07:01;1.50;99.90
6581;DHT22;3324;50.796;7.228;2023-12-04T01:09:26;1.40;99.90
6581;DHT22;3324;50.796;7.228;2023-12-04T01:11:52;1.40;99.90
6581;DHT22;3324;50.796;7.228;2023-12-04T01:14:18;1.40;99.90
6581;DHT22;3324;50.796;7.228;2023-12-04T01:16:43;1.40;99.90
6581;DHT22;3324;50.796;7.228;2023-12-04T01:19:09;1.40;99.90
6581;DHT22;3324;50.796;7.228;2023-12-04T01:21:35;1.40;99.90
6581;DHT22;3324;50.796;7.228;2023-12-04T01:24:00;1.40;99.90
6581;DHT22;3324;50.796;7.228;2023-12-04T01:26:26;1.50;99.90
6581;DHT22;3324;50.796;7.228;2023-12-04T01:28:51;1.40;99.90
6581;DHT22;3324;50.796;7.228;2023-12-04T01:31:17;1.50;99.90
6581;DHT22;3324;50.796;7.228;2023-12-04T01:33:42;1.50;99.90
6581;DHT22;3324;50.796;7.228;2023-12-04T01:36:08;1.50;99.90
6581;DHT22;3324;50.796;7.228;2023-12-04T01:38:33;1.40;99.90
6581;DHT22;3324;50.796;7.228;2023-12-04T01:40:59;1.50;99.90
6581;DHT22;3324;50.796;7.228;2023-12-04T01:43:24;1.50;99.90
6581;DHT22;3324;50.796;7.228;2023-12-04T01:45:50;1.40;99.90
6581;DHT22;3324;50.796;7.228;2023-12-04T01:48:17;1.50;99.90
6581;DHT22;3324;50.796;7.228;2023-12-04T01:50:42;1.50;99.90
6581;DHT22;3324;50.796;7.228;2023-12-04T01:53:08;1.50;99.90
6581;DHT22;3324;50.796;7.228;2023-12-04T01:55:33;1.50;99.90
6581;DHT22;3324;50.796;7.228;2023-12-04T01:57:59;1.50;99.90
6581;DHT22;3324;50.796;7.228;2023-12-04T02:00:25;1.50;99.90
6581;DHT22;3324;50.796;7.228;2023-12-04T02:02:51;1.50;99.90
6581;DHT22;3324;50.796;7.228;2023-12-04T02:05:16;1.50;99.90
6581;DHT22;3324;50.796;7.228;2023-12-04T02:07:42;1.40;99.90
6581;DHT22;3324;50.796;7.228;2023-12-04T02:10:08;1.40;99.90
6581;DHT22;3324;50.796;7.228;2023-12-04T02:12:34;1.50;99.90
6581;DHT22;3324;50.796;7.228;2023-12-04T02:15:00;1.40;99.90
6581;DHT22;3324;50.796;7.228;2023-12-04T02:17:25;1.40;99.90
6581;DHT22;3324;50.796;7.228;2023-12-04T02:19:51;1.40;99.90
6581;DHT22;3324;50.796;7.228;2023-12-04T02:22:17;1.40;99.90
6581;DHT22;3324;50.796;7.228;2023-12-04T02:24:44;1.30;99.90
6581;DHT22;3324;50.796;7.228;2023-12-04T02:29:37;1.30;99.90
6581;DHT22;3324;50.796;7.228;2023-12-04T02:32:04;1.30;99.90
6581;DHT22;3324;50.796;7.228;2023-12-04T02:34:32;1.30;99.90
6581;DHT22;3324;50.796;7.228;2023-12-04T02:36:57;1.30;99.90
6581;DHT22;3324;50.796;7.228;2023-12-04T02:39:23;1.30;99.90
6581;DHT22;3324;50.796;7.228;2023-12-04T02:41:49;1.30;99.90
6581;DHT22;3324;50.796;7.228;2023-12-04T02:44:15;1.30;99.90
6581;DHT22;3324;50.796;7.228;2023-12-04T02:46:41;1.30;99.90
6581;DHT22;3324;50.796;7.228;2023-12-04T02:49:06;1.30;99.90
6581;DHT22;3324;50.796;7.228;2023-12-04T02:51:32;1.30;99.90
6581;DHT22;3324;50.796;7.228;2023-12-04T02:53:57;1.30;99.90
6581;DHT22;3324;50.796;7.228;2023-12-04T02:56:23;1.40;99.90
6581;DHT22;3324;50.796;7.228;2023-12-04T02:58:48;1.30;99.90
6581;DHT22;3324;50.796;7.228;2023-12-04T03:01:14;1.30;99.90
6581;DHT22;3324;50.796;7.228;2023-12-04T03:03:39;1.40;99.90
6581;DHT22;3324;50.796;7.228;2023-12-04T03:06:05;1.40;99.90
6581;DHT22;3324;50.796;7.228;2023-12-04T03:08:30;1.40;99.90
6581;DHT22;3324;50.796;7.228;2023-12-04T03:10:56;1.40;99.90
6581;DHT22;3324;50.796;7.228;2023-12-04T03:13:21;1.40;99.90
6581;DHT22;3324;50.796;7.228;2023-12-04T03:15:47;1.30;99.90
6581;DHT22;3324;50.796;7.228;2023-12-04T03:18:12;1.40;99.90
6581;DHT22;3324;50.796;7.228;2023-12-04T03:20:38;1.30;99.90
6581;DHT22;3324;50.796;7.228;2023-12-04T03:23:03;1.40;99.90
6581;DHT22;3324;50.796;7.228;2023-12-04T03:25:29;1.40;99.90
6581;DHT22;3324;50.796;7.228;2023-12-04T03:27:54;1.40;99.90
6581;DHT22;3324;50.796;7.228;2023-12-04T03:30:20;1.30;99.90
6581;DHT22;3324;50.796;7.228;2023-12-04T03:32:45;1.30;99.90
6581;DHT22;3324;50.796;7.228;2023-12-04T03:35:11;1.30;99.90
6581;DHT22;3324;50.796;7.228;2023-12-04T03:37:36;1.30;99.90
6581;DHT22;3324;50.796;7.228;2023-12-04T03:40:02;1.30;99.90
6581;DHT22;3324;50.796;7.228;2023-12-04T03:42:27;1.30;99.90
6581;DHT22;3324;50.796;7.228;2023-12-04T03:44:53;1.30;99.90
6581;DHT22;3324;50.796;7.228;2023-12-04T03:47:18;1.30;99.90
6581;DHT22;3324;50.796;7.228;2023-12-04T03:49:44;1.30;99.90
6581;DHT22;3324;50.796;7.228;2023-12-04T03:52:09;1.30;99.90
6581;DHT22;3324;50.796;7.228;2023-12-04T03:54:35;1.30;99.90
6581;DHT22;3324;50.796;7.228;2023-12-04T03:57:00;1.30;99.90
6581;DHT22;3324;50.796;7.228;2023-12-04T03:59:26;1.30;99.90
6581;DHT22;3324;50.796;7.228;2023-12-04T04:01:51;1.30;99.90
6581;DHT22;3324;50.796;7.228;2023-12-04T04:04:17;1.30;99.90
6581;DHT22;3324;50.796;7.228;2023-12-04T04:06:42;1.30;99.90
6581;DHT22;3324;50.796;7.228;2023-12-04T04:09:08;1.30;99.90
6581;DHT22;3324;50.796;7.228;2023-12-04T04:11:34;1.30;99.90
6581;DHT22;3324;50.796;7.228;2023-12-04T04:14:00;1.30;99.90
6581;DHT22;3324;50.796;7.228;2023-12-04T04:16:26;1.30;99.90
6581;DHT22;3324;50.796;7.228;2023-12-04T04:18:51;1.30;99.90
6581;DHT22;3324;50.796;7.228;2023-12-04T04:21:17;1.20;99.90
6581;DHT22;3324;50.796;7.228;2023-12-04T04:23:42;1.20;99.90
6581;DHT22;3324;50.796;7.228;2023-12-04T04:26:08;1.20;99.90
6581;DHT22;3324;50.796;7.228;2023-12-04T04:28:33;1.20;99.90
6581;DHT22;3324;50.796;7.228;2023-12-04T04:30:59;1.20;99.90
6581;DHT22;3324;50.796;7.228;2023-12-04T04:33:24;1.20;99.90
6581;DHT22;3324;50.796;7.228;2023-12-04T04:35:49;1.30;99.90
6581;DHT22;3324;50.796;7.228;2023-12-04T04:38:15;1.20;99.90
6581;DHT22;3324;50.796;7.228;2023-12-04T04:40:40;1.20;99.90
6581;DHT22;3324;50.796;7.228;2023-12-04T04:43:09;1.20;99.90
6581;DHT22;3324;50.796;7.228;2023-12-04T04:45:35;1.20;99.90
6581;DHT22;3324;50.796;7.228;2023-12-04T04:48:01;1.20;99.90
6581;DHT22;3324;50.796;7.228;2023-12-04T04:50:26;1.20;99.90
6581;DHT22;3324;50.796;7.228;2023-12-04T04:52:52;1.20;99.90
6581;DHT22;3324;50.796;7.228;2023-12-04T04:55:17;1.10;99.90
6581;DHT22;3324;50.796;7.228;2023-12-04T04:57:43;1.20;99.90
6581;DHT22;3324;50.796;7.228;2023-12-04T05:00:08;1.20;99.90
6581;DHT22;3324;50.796;7.228;2023-12-04T05:02:34;1.10;99.90
6581;DHT22;3324;50.796;7.228;2023-12-04T05:05:02;1.10;99.90
6581;DHT22;3324;50.796;7.228;2023-12-04T05:07:27;1.10;99.90
6581;DHT22;3324;50.796;7.228;2023-12-04T05:09:53;1.10;99.90
6581;DHT22;3324;50.796;7.228;2023-12-04T05:12:18;1.10;99.90
6581;DHT22;3324;50.796;7.228;2023-12-04T05:14:44;1.10;99.90
6581;DHT22;3324;50.796;7.228;2023-12-04T05:17:09;1.10;99.90
6581;DHT22;3324;50.796;7.228;2023-12-04T05:19:35;1.00;99.90
6581;DHT22;3324;50.796;7.228;2023-12-04T05:22:00;1.10;99.90
6581;DHT22;3324;50.796;7.228;2023-12-04T05:24:26;1.00;99.90
6581;DHT22;3324;50.796;7.228;2023-12-04T05:26:51;1.10;99.90
6581;DHT22;3324;50.796;7.228;2023-12-04T05:29:16;1.10;99.90
6581;DHT22;3324;50.796;7.228;2023-12-04T05:31:42;1.00;99.90
6581;DHT22;3324;50.796;7.228;2023-12-04T05:34:07;1.00;99.90
6581;DHT22;3324;50.796;7.228;2023-12-04T05:36:33;1.10;99.90
6581;DHT22;3324;50.796;7.228;2023-12-04T05:38:58;1.10;99.90
6581;DHT22;3324;50.796;7.228;2023-12-04T05:41:24;1.00;99.90
6581;DHT22;3324;50.796;7.228;2023-12-04T05:43:49;1.00;99.90
6581;DHT22;3324;50.796;7.228;2023-12-04T05:46:15;1.10;99.90
6581;DHT22;3324;50.796;7.228;2023-12-04T05:48:40;1.10;99.90
6581;DHT22;3324;50.796;7.228;2023-12-04T05:51:06;1.10;99.90
6581;DHT22;3324;50.796;7.228;2023-12-04T05:53:31;1.10;99.90
6581;DHT22;3324;50.796;7.228;2023-12-04T05:55:56;1.10;99.90
6581;DHT22;3324;50.796;7.228;2023-12-04T05:58:22;1.10;99.90
6581;DHT22;3324;50.796;7.228;2023-12-04T06:00:47;1.10;99.90
6581;DHT22;3324;50.796;7.228;2023-12-04T06:03:13;1.10;99.90
6581;DHT22;3324;50.796;7.228;2023-12-04T06:05:38;1.10;99.90
6581;DHT22;3324;50.796;7.228;2023-12-04T06:08:04;1.20;99.90
6581;DHT22;3324;50.796;7.228;2023-12-04T06:10:30;1.20;99.90
6581;DHT22;3324;50.796;7.228;2023-12-04T06:12:55;1.20;99.90
6581;DHT22;3324;50.796;7.228;2023-12-04T06:15:21;1.20;99.90
6581;DHT22;3324;50.796;7.228;2023-12-04T06:17:46;1.10;99.90
6581;DHT22;3324;50.796;7.228;2023-12-04T06:20:11;1.10;99.90
6581;DHT22;3324;50.796;7.228;2023-12-04T06:22:37;1.20;99.90
6581;DHT22;3324;50.796;7.228;2023-12-04T06:25:03;1.20;99.90
6581;DHT22;3324;50.796;7.228;2023-12-04T06:27:28;1.20;99.90
6581;DHT22;3324;50.796;7.228;2023-12-04T06:29:54;1.10;99.90
6581;DHT22;3324;50.796;7.228;2023-12-04T06:32:20;1.00;99.90
6581;DHT22;3324;50.796;7.228;2023-12-04T06:34:45;1.00;99.90
6581;DHT22;3324;50.796;7.228;2023-12-04T06:37:11;1.00;99.90
6581;DHT22;3324;50.796;7.228;2023-12-04T06:39:38;1.10;99.90
6581;DHT22;3324;50.796;7.228;2023-12-04T06:42:07;1.00;99.90
6581;DHT22;3324;50.796;7.228;2023-12-04T06:44:33;1.00;99.90
6581;DHT22;3324;50.796;7.228;2023-12-04T06:47:00;1.00;99.90
6581;DHT22;3324;50.796;7.228;2023-12-04T06:49:25;1.00;99.90
6581;DHT22;3324;50.796;7.228;2023-12-04T06:51:53;1.00;99.90
6581;DHT22;3324;50.796;7.228;2023-12-04T06:54:18;0.90;99.90
6581;DHT22;3324;50.796;7.228;2023-12-04T06:56:44;0.90;99.90
6581;DHT22;3324;50.796;7.228;2023-12-04T06:59:09;0.80;99.90
6581;DHT22;3324;50.796;7.228;2023-12-04T07:01:35;0.80;99.90
6581;DHT22;3324;50.796;7.228;2023-12-04T07:04:01;0.90;99.90
6581;DHT22;3324;50.796;7.228;2023-12-04T07:06:26;0.80;99.90
6581;DHT22;3324;50.796;7.228;2023-12-04T07:08:52;0.80;99.90
6581;DHT22;3324;50.796;7.228;2023-12-04T07:11:17;0.80;99.90
6581;DHT22;3324;50.796;7.228;2023-12-04T07:13:43;0.80;99.90
6581;DHT22;3324;50.796;7.228;2023-12-04T07:16:08;0.80;99.90
6581;DHT22;3324;50.796;7.228;2023-12-04T07:18:34;0.80;99.90
6581;DHT22;3324;50.796;7.228;2023-12-04T07:21:00;0.80;99.90
6581;DHT22;3324;50.796;7.228;2023-12-04T07:23:25;0.80;99.90
6581;DHT22;3324;50.796;7.228;2023-12-04T07:25:51;0.80;99.90
6581;DHT22;3324;50.796;7.228;2023-12-04T07:28:17;0.80;99.90
6581;DHT22;3324;50.796;7.228;2023-12-04T07:30:43;0.90;99.90
6581;DHT22;3324;50.796;7.228;2023-12-04T07:33:08;0.90;99.90
6581;DHT22;3324;50.796;7.228;2023-12-04T07:35:34;0.90;99.90
6581;DHT22;3324;50.796;7.228;2023-12-04T07:37:59;0.90;99.90
6581;DHT22;3324;50.796;7.228;2023-12-04T07:40:25;0.90;99.90
6581;DHT22;3324;50.796;7.228;2023-12-04T07:42:50;0.90;99.90
6581;DHT22;3324;50.796;7.228;2023-12-04T07:45:16;0.90;99.90
6581;DHT22;3324;50.796;7.228;2023-12-04T07:47:41;0.90;99.90
6581;DHT22;3324;50.796;7.228;2023-12-04T07:50:07;0.90;99.90
6581;DHT22;3324;50.796;7.228;2023-12-04T07:52:32;1.00;99.90
6581;DHT22;3324;50.796;7.228;2023-12-04T07:54:58;1.00;99.90
6581;DHT22;3324;50.796;7.228;2023-12-04T07:57:23;1.00;99.90
6581;DHT22;3324;50.796;7.228;2023-12-04T07:59:49;1.00;99.90
6581;DHT22;3324;50.796;7.228;2023-12-04T08:02:14;1.00;99.90
6581;DHT22;3324;50.796;7.228;2023-12-04T08:04:40;1.00;99.90
6581;DHT22;3324;50.796;7.228;2023-12-04T08:07:05;1.00;99.90
6581;DHT22;3324;50.796;7.228;2023-12-04T08:09:31;1.00;99.90
6581;DHT22;3324;50.796;7.228;2023-12-04T08:11:56;1.00;99.90
6581;DHT22;3324;50.796;7.228;2023-12-04T08:14:22;0.90;99.90
6581;DHT22;3324;50.796;7.228;2023-12-04T08:16:47;1.00;99.90
6581;DHT22;3324;50.796;7.228;2023-12-04T08:19:13;1.00;99.90
6581;DHT22;3324;50.796;7.228;2023-12-04T08:21:38;1.00;99.90
6581;DHT22;3324;50.796;7.228;2023-12-04T08:24:04;1.00;99.90
6581;DHT22;3324;50.796;7.228;2023-12-04T08:26:29;1.00;99.90
6581;DHT22;3324;50.796;7.228;2023-12-04T08:28:55;1.00;99.90
6581;DHT22;3324;50.796;7.228;2023-12-04T08:31:21;1.00;99.90
6581;DHT22;3324;50.796;7.228;2023-12-04T08:33:47;1.00;99.90
6581;DHT22;3324;50.796;7.228;2023-12-04T08:36:12;1.00;99.90
6581;DHT22;3324;50.796;7.228;2023-12-04T08:38:38;1.00;99.90
6581;DHT22;3324;50.796;7.228;2023-12-04T08:41:04;1.00;99.90
6581;DHT22;3324;50.796;7.228;2023-12-04T08:43:29;1.00;99.90
6581;DHT22;3324;50.796;7.228;2023-12-04T08:45:55;1.10;99.90
6581;DHT22;3324;50.796;7.228;2023-12-04T08:48:20;1.00;99.90
6581;DHT22;3324;50.796;7.228;2023-12-04T08:50:46;1.10;99.90
6581;DHT22;3324;50.796;7.228;2023-12-04T08:53:12;1.10;99.90
6581;DHT22;3324;50.796;7.228;2023-12-04T08:55:37;1.20;99.90
6581;DHT22;3324;50.796;7.228;2023-12-04T08:58:03;1.20;99.90
6581;DHT22;3324;50.796;7.228;2023-12-04T09:00:29;1.20;99.90
6581;DHT22;3324;50.796;7.228;2023-12-04T09:02:54;1.20;99.90
6581;DHT22;3324;50.796;7.228;2023-12-04T09:05:20;1.30;99.90
6581;DHT22;3324;50.796;7.228;2023-12-04T09:07:46;1.20;99.90
6581;DHT22;3324;50.796;7.228;2023-12-04T09:10:11;1.20;99.90
6581;DHT22;3324;50.796;7.228;2023-12-04T09:12:37;1.50;99.90
6581;DHT22;3324;50.796;7.228;2023-12-04T09:15:04;1.50;99.90
6581;DHT22;3324;50.796;7.228;2023-12-04T09:17:30;1.40;99.90
6581;DHT22;3324;50.796;7.228;2023-12-04T09:19:55;1.50;99.90
6581;DHT22;3324;50.796;7.228;2023-12-04T09:22:21;1.60;99.90
6581;DHT22;3324;50.796;7.228;2023-12-04T09:24:46;1.60;99.90
6581;DHT22;3324;50.796;7.228;2023-12-04T09:27:12;1.60;99.90
6581;DHT22;3324;50.796;7.228;2023-12-04T09:29:37;1.50;99.90
6581;DHT22;3324;50.796;7.228;2023-12-04T09:32:03;1.50;99.90
6581;DHT22;3324;50.796;7.228;2023-12-04T09:34:28;1.50;99.90
6581;DHT22;3324;50.796;7.228;2023-12-04T09:36:54;1.50;99.90
6581;DHT22;3324;50.796;7.228;2023-12-04T09:39:19;1.40;99.90
6581;DHT22;3324;50.796;7.228;2023-12-04T09:41:45;1.50;99.90
6581;DHT22;3324;50.796;7.228;2023-12-04T09:44:12;1.50;99.90
6581;DHT22;3324;50.796;7.228;2023-12-04T09:46:37;1.50;99.90
6581;DHT22;3324;50.796;7.228;2023-12-04T09:49:03;1.50;99.90
6581;DHT22;3324;50.796;7.228;2023-12-04T09:51:29;1.50;99.90
6581;DHT22;3324;50.796;7.228;2023-12-04T09:53:55;1.60;99.90
6581;DHT22;3324;50.796;7.228;2023-12-04T09:56:22;1.60;99.90
6581;DHT22;3324;50.796;7.228;2023-12-04T09:58:48;1.60;99.90
6581;DHT22;3324;50.796;7.228;2023-12-04T10:01:15;1.70;99.90
6581;DHT22;3324;50.796;7.228;2023-12-04T10:03:41;1.60;99.90
6581;DHT22;3324;50.796;7.228;2023-12-04T10:06:06;1.70;99.90
6581;DHT22;3324;50.796;7.228;2023-12-04T10:08:33;1.70;99.90
6581;DHT22;3324;50.796;7.228;2023-12-04T10:10:58;1.80;99.90
6581;DHT22;3324;50.796;7.228;2023-12-04T10:13:24;1.80;99.90
6581;DHT22;3324;50.796;7.228;2023-12-04T10:15:50;1.80;99.90
6581;DHT22;3324;50.796;7.228;2023-12-04T10:18:26;1.80;99.90
6581;DHT22;3324;50.796;7.228;2023-12-04T10:20:54;1.80;99.90
6581;DHT22;3324;50.796;7.228;2023-12-04T10:23:20;1.80;99.90
6581;DHT22;3324;50.796;7.228;2023-12-04T10:25:46;1.90;99.90
6581;DHT22;3324;50.796;7.228;2023-12-04T10:28:14;1.90;99.90
6581;DHT22;3324;50.796;7.228;2023-12-04T10:30:41;1.80;99.90
6581;DHT22;3324;50.796;7.228;2023-12-04T10:33:07;1.90;99.90
6581;DHT22;3324;50.796;7.228;2023-12-04T10:35:33;1.90;99.90
6581;DHT22;3324;50.796;7.228;2023-12-04T10:38:02;1.90;99.90
6581;DHT22;3324;50.796;7.228;2023-12-04T10:40:29;2.00;99.90
6581;DHT22;3324;50.796;7.228;2023-12-04T10:45:50;2.10;99.90
6581;DHT22;3324;50.796;7.228;2023-12-04T10:48:16;2.00;99.90
6581;DHT22;3324;50.796;7.228;2023-12-04T10:50:43;2.10;99.90
6581;DHT22;3324;50.796;7.228;2023-12-04T10:53:09;2.10;99.90
6581;DHT22;3324;50.796;7.228;2023-12-04T10:55:35;2.10;99.90
6581;DHT22;3324;50.796;7.228;2023-12-04T10:58:02;2.10;99.90
6581;DHT22;3324;50.796;7.228;2023-12-04T11:00:30;2.20;99.90
6581;DHT22;3324;50.796;7.228;2023-12-04T11:02:55;2.20;99.90
6581;DHT22;3324;50.796;7.228;2023-12-04T11:05:22;2.20;99.90
6581;DHT22;3324;50.796;7.228;2023-12-04T11:07:50;2.20;99.90
6581;DHT22;3324;50.796;7.228;2023-12-04T11:10:18;2.20;99.90
6581;DHT22;3324;50.796;7.228;2023-12-04T11:12:45;2.20;99.90
6581;DHT22;3324;50.796;7.228;2023-12-04T11:15:11;2.30;99.90
6581;DHT22;3324;50.796;7.228;2023-12-04T11:17:39;2.30;99.90
6581;DHT22;3324;50.796;7.228;2023-12-04T11:20:10;2.30;99.90
6581;DHT22;3324;50.796;7.228;2023-12-04T11:22:36;2.40;99.90
6581;DHT22;3324;50.796;7.228;2023-12-04T11:25:05;2.40;99.90
6581;DHT22;3324;50.796;7.228;2023-12-04T11:27:31;2.40;99.90
6581;DHT22;3324;50.796;7.228;2023-12-04T11:29:57;2.40;99.90
6581;DHT22;3324;50.796;7.228;2023-12-04T11:32:24;2.40;99.90
6581;DHT22;3324;50.796;7.228;2023-12-04T11:34:50;2.30;99.90
6581;DHT22;3324;50.796;7.228;2023-12-04T11:37:15;2.30;99.90
6581;DHT22;3324;50.796;7.228;2023-12-04T11:39:41;2.20;99.90
6581;DHT22;3324;50.796;7.228;2023-12-04T11:42:06;2.20;99.90
6581;DHT22;3324;50.796;7.228;2023-12-04T11:44:32;2.20;99.90
6581;DHT22;3324;50.796;7.228;2023-12-04T11:47:02;2.20;99.90
6581;DHT22;3324;50.796;7.228;2023-12-04T11:49:29;2.20;99.90
6581;DHT22;3324;50.796;7.228;2023-12-04T11:51:55;2.20;99.90
6581;DHT22;3324;50.796;7.228;2023-12-04T11:54:21;2.20;99.90
6581;DHT22;3324;50.796;7.228;2023-12-04T11:56:59;2.20;99.90
6581;DHT22;3324;50.796;7.228;2023-12-04T11:59:25;2.20;99.90
6581;DHT22;3324;50.796;7.228;2023-12-04T12:01:53;2.20;99.90
6581;DHT22;3324;50.796;7.228;2023-12-04T12:10:25;2.20;99.90
6581;DHT22;3324;50.796;7.228;2023-12-04T12:12:52;2.30;99.90
6581;DHT22;3324;50.796;7.228;2023-12-04T12:15:17;2.10;99.90
6581;DHT22;3324;50.796;7.228;2023-12-04T12:17:42;2.20;99.90
6581;DHT22;3324;50.796;7.228;2023-12-04T12:20:09;2.10;99.90
6581;DHT22;3324;50.796;7.228;2023-12-04T12:25:38;2.10;99.90
6581;DHT22;3324;50.796;7.228;2023-12-04T12:31:07;1.90;99.90
6581;DHT22;3324;50.796;7.228;2023-12-04T12:33:33;1.90;99.90
6581;DHT22;3324;50.796;7.228;2023-12-04T12:39:01;1.90;99.90
6581;DHT22;3324;50.796;7.228;2023-12-04T12:41:37;1.90;99.90
6581;DHT22;3324;50.796;7.228;2023-12-04T12:44:06;1.80;99.90
6581;DHT22;3324;50.796;7.228;2023-12-04T12:46:32;1.80;99.90
6581;DHT22;3324;50.796;7.228;2023-12-04T12:55:01;1.80;99.90
6581;DHT22;3324;50.796;7.228;2023-12-04T12:57:27;1.80;99.90
6581;DHT22;3324;50.796;7.228;2023-12-04T12:59:53;1.70;99.90
6581;DHT22;3324;50.796;7.228;2023-12-04T13:08:15;1.70;99.90
6581;DHT22;3324;50.796;7.228;2023-12-04T13:10:41;1.70;99.90
6581;DHT22;3324;50.796;7.228;2023-12-04T13:13:10;1.70;99.90
6581;DHT22;3324;50.796;7.228;2023-12-04T13:15:36;1.70;99.90
6581;DHT22;3324;50.796;7.228;2023-12-04T13:18:02;1.70;99.90
6581;DHT22;3324;50.796;7.228;2023-12-04T13:20:27;1.70;99.90
6581;DHT22;3324;50.796;7.228;2023-12-04T13:22:53;1.70;99.90
6581;DHT22;3324;50.796;7.228;2023-12-04T13:25:18;1.80;99.90
6581;DHT22;3324;50.796;7.228;2023-12-04T13:27:44;1.80;99.90
6581;DHT22;3324;50.796;7.228;2023-12-04T13:30:09;1.80;99.90
6581;DHT22;3324;50.796;7.228;2023-12-04T13:32:36;1.80;99.90
6581;DHT22;3324;50.796;7.228;2023-12-04T13:35:02;1.80;99.90
6581;DHT22;3324;50.796;7.228;2023-12-04T13:37:30;1.80;99.90
6581;DHT22;3324;50.796;7.228;2023-12-04T13:39:55;1.80;99.90
6581;DHT22;3324;50.796;7.228;2023-12-04T13:42:28;1.80;99.90
6581;DHT22;3324;50.796;7.228;2023-12-04T13:45:12;1.80;99.90
6581;DHT22;3324;50.796;7.228;2023-12-04T13:47:38;1.80;99.90
6581;DHT22;3324;50.796;7.228;2023-12-04T13:50:04;1.80;99.90
6581;DHT22;3324;50.796;7.228;2023-12-04T13:52:30;1.80;99.90
6581;DHT22;3324;50.796;7.228;2023-12-04T13:54:59;1.80;99.90
6581;DHT22;3324;50.796;7.228;2023-12-04T13:57:24;1.80;99.90
6581;DHT22;3324;50.796;7.228;2023-12-04T13:59:58;1.80;99.90
6581;DHT22;3324;50.796;7.228;2023-12-04T14:02:24;1.80;99.90
6581;DHT22;3324;50.796;7.228;2023-12-04T14:04:49;1.80;99.90
6581;DHT22;3324;50.796;7.228;2023-12-04T14:07:15;1.80;99.90
6581;DHT22;3324;50.796;7.228;2023-12-04T14:09:41;1.80;99.90
6581;DHT22;3324;50.796;7.228;2023-12-04T14:12:06;1.80;99.90
6581;DHT22;3324;50.796;7.228;2023-12-04T14:14:32;1.80;99.90
6581;DHT22;3324;50.796;7.228;2023-12-04T14:16:58;1.80;99.90
6581;DHT22;3324;50.796;7.228;2023-12-04T14:19:24;1.80;99.90
6581;DHT22;3324;50.796;7.228;2023-12-04T14:21:50;1.80;99.90
6581;DHT22;3324;50.796;7.228;2023-12-04T14:24:15;1.80;99.90
6581;DHT22;3324;50.796;7.228;2023-12-04T14:26:41;1.80;99.90
6581;DHT22;3324;50.796;7.228;2023-12-04T14:29:06;1.80;99.90
6581;DHT22;3324;50.796;7.228;2023-12-04T14:31:33;1.80;99.90
6581;DHT22;3324;50.796;7.228;2023-12-04T14:33:59;1.80;99.90
6581;DHT22;3324;50.796;7.228;2023-12-04T14:36:24;1.90;99.90
6581;DHT22;3324;50.796;7.228;2023-12-04T14:38:52;1.90;99.90
6581;DHT22;3324;50.796;7.228;2023-12-04T14:41:18;1.90;99.90
6581;DHT22;3324;50.796;7.228;2023-12-04T14:43:43;1.90;99.90
6581;DHT22;3324;50.796;7.228;2023-12-04T14:46:09;1.90;99.90
6581;DHT22;3324;50.796;7.228;2023-12-04T14:48:35;1.90;99.90
6581;DHT22;3324;50.796;7.228;2023-12-04T14:51:01;2.00;99.90
6581;DHT22;3324;50.796;7.228;2023-12-04T14:53:28;2.00;99.90
6581;DHT22;3324;50.796;7.228;2023-12-04T14:55:56;2.00;99.90
6581;DHT22;3324;50.796;7.228;2023-12-04T14:58:40;2.00;99.90
6581;DHT22;3324;50.796;7.228;2023-12-04T15:01:09;2.00;99.90
6581;DHT22;3324;50.796;7.228;2023-12-04T15:03:43;2.00;99.90
6581;DHT22;3324;50.796;7.228;2023-12-04T15:06:29;2.10;99.90
6581;DHT22;3324;50.796;7.228;2023-12-04T15:09:13;2.00;99.90
6581;DHT22;3324;50.796;7.228;2023-12-04T15:11:57;2.10;99.90
6581;DHT22;3324;50.796;7.228;2023-12-04T15:14:29;2.10;99.90
6581;DHT22;3324;50.796;7.228;2023-12-04T15:16:57;2.10;99.90
6581;DHT22;3324;50.796;7.228;2023-12-04T15:19:39;2.10;99.90
6581;DHT22;3324;50.796;7.228;2023-12-04T15:22:22;2.10;99.90
6581;DHT22;3324;50.796;7.228;2023-12-04T15:24:48;2.10;99.90
6581;DHT22;3324;50.796;7.228;2023-12-04T15:27:13;2.10;99.90
6581;DHT22;3324;50.796;7.228;2023-12-04T15:29:39;2.10;99.90
6581;DHT22;3324;50.796;7.228;2023-12-04T15:32:06;2.10;99.90
6581;DHT22;3324;50.796;7.228;2023-12-04T15:34:31;2.10;99.90
6581;DHT22;3324;50.796;7.228;2023-12-04T15:36:57;2.10;99.90
6581;DHT22;3324;50.796;7.228;2023-12-04T15:39:22;2.10;99.90
6581;DHT22;3324;50.796;7.228;2023-12-04T15:41:48;2.10;99.90
6581;DHT22;3324;50.796;7.228;2023-12-04T15:44:14;2.10;99.90
6581;DHT22;3324;50.796;7.228;2023-12-04T15:46:39;2.10;99.90
6581;DHT22;3324;50.796;7.228;2023-12-04T15:49:05;2.10;99.90
6581;DHT22;3324;50.796;7.228;2023-12-04T15:51:30;2.10;99.90
6581;DHT22;3324;50.796;7.228;2023-12-04T15:53:56;2.10;99.90
6581;DHT22;3324;50.796;7.228;2023-12-04T15:56:21;2.10;99.90
6581;DHT22;3324;50.796;7.228;2023-12-04T15:58:47;2.10;99.90
6581;DHT22;3324;50.796;7.228;2023-12-04T16:01:13;2.10;99.90
6581;DHT22;3324;50.796;7.228;2023-12-04T16:03:38;2.10;99.90
6581;DHT22;3324;50.796;7.228;2023-12-04T16:06:04;2.10;99.90
6581;DHT22;3324;50.796;7.228;2023-12-04T16:08:29;2.20;99.90
6581;DHT22;3324;50.796;7.228;2023-12-04T16:10:55;2.20;99.90
6581;DHT22;3324;50.796;7.228;2023-12-04T16:13:21;2.10;99.90
6581;DHT22;3324;50.796;7.228;2023-12-04T16:15:46;2.20;99.90
6581;DHT22;3324;50.796;7.228;2023-12-04T16:18:13;2.20;99.90
6581;DHT22;3324;50.796;7.228;2023-12-04T16:20:39;2.20;99.90
6581;DHT22;3324;50.796;7.228;2023-12-04T16:23:04;2.20;99.90
6581;DHT22;3324;50.796;7.228;2023-12-04T16:25:30;2.20;99.90
6581;DHT22;3324;50.796;7.228;2023-12-04T16:27:55;2.20;99.90
6581;DHT22;3324;50.796;7.228;2023-12-04T16:30:24;2.10;99.90
6581;DHT22;3324;50.796;7.228;2023-12-04T16:32:50;2.20;99.90
6581;DHT22;3324;50.796;7.228;2023-12-04T16:35:17;2.20;99.90
6581;DHT22;3324;50.796;7.228;2023-12-04T16:37:43;2.20;99.90
6581;DHT22;3324;50.796;7.228;2023-12-04T16:40:08;2.20;99.90
6581;DHT22;3324;50.796;7.228;2023-12-04T16:42:34;2.20;99.90